Time;durP1;ratioP1;P1;durP2;ratioP2;P2;SDS_P1;SDS_P2;PMS_P1;PMS_P2;Temp;Humidity;BMP_temperature;BMP_pressure;BME280_temperature;BME280_humidity;BME280_pressure;Samples;Min_cycle;Max_cycle;Signal;HPM_P1;HPM_P2
2022/05/13 00:01:57;;;;;;;;;;;17.10;99.90;;;;;;5082682;28;19927;-68
2022/05/13 00:04:24;;;;;;;;;;;17.00;99.90;;;;;;5073402;28;20122;-67
2022/05/13 00:06:50;;;;;;;;;;;17.00;99.90;;;;;;5065887;28;19921;-67
2022/05/13 00:09:17;;;;;;;;;;;16.90;99.90;;;;;;5066684;28;19926;-67
2022/05/13 00:11:43;;;;;;;;;;;16.90;99.90;;;;;;5085095;28;20111;-67
2022/05/13 00:14:10;;;;;;;;;;;16.90;99.90;;;;;;5086201;28;20119;-67
2022/05/13 00:16:38;;;;;;;;;;;16.90;99.90;;;;;;5084937;28;19933;-68
2022/05/13 00:19:05;;;;;;;;;;;16.90;99.90;;;;;;5086236;28;19924;-67
2022/05/13 00:21:32;;;;;;;;;;;16.90;99.90;;;;;;5085963;28;19926;-68
2022/05/13 00:23:59;;;;;;;;;;;16.80;99.90;;;;;;5086197;28;19928;-67
2022/05/13 00:26:25;;;;;;;;;;;16.80;99.90;;;;;;5085539;28;20212;-68
2022/05/13 00:28:52;;;;;;;;;;;16.80;99.90;;;;;;5080077;28;19943;-67
2022/05/13 00:31:19;;;;;;;;;;;16.80;99.90;;;;;;5086122;28;19920;-67
2022/05/13 00:33:46;;;;;;;;;;;16.90;99.90;;;;;;5085832;28;19990;-68
2022/05/13 00:36:13;;;;;;;;;;;16.90;99.90;;;;;;5085641;28;19932;-69
2022/05/13 00:38:40;;;;;;;;;;;16.90;99.90;;;;;;5076319;28;19928;-67
2022/05/13 00:41:06;;;;;;;;;;;16.90;99.90;;;;;;5076089;28;19920;-67
2022/05/13 00:43:43;;;;;;;;;;;16.90;99.90;;;;;;5085707;28;19928;-68
2022/05/13 00:46:09;;;;;;;;;;;16.90;99.90;;;;;;5085156;28;20097;-68
2022/05/13 00:48:36;;;;;;;;;;;16.90;99.90;;;;;;5085473;28;19928;-67
2022/05/13 00:51:05;;;;;;;;;;;17.00;99.90;;;;;;5085636;28;19935;-67
2022/05/13 00:53:32;;;;;;;;;;;17.00;99.90;;;;;;5085822;28;19920;-68
2022/05/13 00:56:00;;;;;;;;;;;17.00;99.90;;;;;;5084828;28;19935;-67
2022/05/13 00:58:27;;;;;;;;;;;17.00;99.90;;;;;;5085331;28;20112;-67
2022/05/13 01:00:54;;;;;;;;;;;16.90;99.90;;;;;;5085538;28;19920;-67
2022/05/13 01:03:21;;;;;;;;;;;16.90;99.90;;;;;;5081827;28;19928;-68
2022/05/13 01:05:49;;;;;;;;;;;16.90;99.90;;;;;;5066318;28;19924;-67
2022/05/13 01:08:17;;;;;;;;;;;16.90;99.90;;;;;;5085405;28;19920;-67
2022/05/13 01:10:45;;;;;;;;;;;16.90;99.90;;;;;;5085297;28;19920;-68
2022/05/13 01:13:14;;;;;;;;;;;16.90;99.90;;;;;;5083757;28;20313;-68
2022/05/13 01:15:42;;;;;;;;;;;16.90;99.90;;;;;;5084179;28;19927;-68
2022/05/13 01:18:07;;;;;;;;;;;17.00;99.90;;;;;;5085190;28;20257;-67
2022/05/13 01:20:35;;;;;;;;;;;16.90;99.90;;;;;;5085572;28;19923;-67
2022/05/13 01:23:04;;;;;;;;;;;17.00;99.90;;;;;;5082598;28;19983;-68
2022/05/13 01:25:33;;;;;;;;;;;16.90;99.90;;;;;;5084431;28;20207;-68
2022/05/13 01:28:06;;;;;;;;;;;16.90;99.90;;;;;;5084678;28;20220;-68
2022/05/13 01:30:33;;;;;;;;;;;16.90;99.90;;;;;;5084604;28;19944;-67
2022/05/13 01:32:59;;;;;;;;;;;16.90;99.90;;;;;;5085032;28;19921;-68
2022/05/13 01:35:26;;;;;;;;;;;16.90;99.90;;;;;;5083975;28;20233;-67
2022/05/13 01:37:53;;;;;;;;;;;16.90;99.90;;;;;;5084794;28;19921;-67
2022/05/13 01:40:21;;;;;;;;;;;16.90;99.90;;;;;;5069406;28;19921;-67
2022/05/13 01:42:47;;;;;;;;;;;16.90;99.90;;;;;;5069608;28;19929;-67
2022/05/13 01:45:14;;;;;;;;;;;16.90;99.90;;;;;;5083996;28;19927;-67
2022/05/13 01:47:41;;;;;;;;;;;16.90;99.90;;;;;;5084617;28;19956;-68
2022/05/13 01:50:08;;;;;;;;;;;16.90;99.90;;;;;;5084753;28;19924;-67
2022/05/13 01:52:35;;;;;;;;;;;17.00;99.90;;;;;;5084593;28;19921;-68
2022/05/13 01:55:01;;;;;;;;;;;17.00;99.90;;;;;;5081066;28;19921;-67
2022/05/13 01:57:29;;;;;;;;;;;17.00;99.90;;;;;;5082068;28;19921;-68
2022/05/13 01:59:56;;;;;;;;;;;16.90;99.90;;;;;;5084566;28;19926;-67
2022/05/13 02:02:22;;;;;;;;;;;17.00;99.90;;;;;;5078158;28;19924;-68
2022/05/13 02:04:49;;;;;;;;;;;17.00;99.90;;;;;;5072230;28;19920;-68
2022/05/13 02:07:16;;;;;;;;;;;17.00;99.90;;;;;;5083820;28;19920;-67
2022/05/13 02:09:42;;;;;;;;;;;17.00;99.90;;;;;;5084463;28;19942;-67
2022/05/13 02:12:09;;;;;;;;;;;17.00;99.90;;;;;;5083662;28;19967;-67
2022/05/13 02:14:37;;;;;;;;;;;17.00;99.90;;;;;;5080255;28;19920;-67
2022/05/13 02:17:04;;;;;;;;;;;16.90;99.90;;;;;;5063676;28;19921;-68
2022/05/13 02:19:31;;;;;;;;;;;16.90;99.90;;;;;;5063947;28;19921;-68
2022/05/13 02:21:57;;;;;;;;;;;16.90;99.90;;;;;;5064010;28;19954;-68
2022/05/13 02:24:24;;;;;;;;;;;16.90;99.90;;;;;;5063836;28;19924;-67
2022/05/13 02:26:50;;;;;;;;;;;16.80;99.90;;;;;;5075423;28;19920;-68
2022/05/13 02:29:17;;;;;;;;;;;16.80;99.90;;;;;;5083907;28;19920;-67
2022/05/13 02:31:45;;;;;;;;;;;16.80;99.90;;;;;;5083985;28;19920;-67
2022/05/13 02:34:11;;;;;;;;;;;16.70;99.90;;;;;;5070644;28;19921;-67
2022/05/13 02:36:38;;;;;;;;;;;16.70;99.90;;;;;;5063019;28;19921;-67
2022/05/13 02:39:04;;;;;;;;;;;16.70;99.90;;;;;;5068363;28;19954;-68
2022/05/13 02:41:31;;;;;;;;;;;16.70;99.90;;;;;;5083276;28;19920;-68
2022/05/13 02:43:58;;;;;;;;;;;16.70;99.90;;;;;;5069498;28;19921;-68
2022/05/13 02:46:25;;;;;;;;;;;16.70;99.90;;;;;;5063464;28;19921;-67
2022/05/13 02:48:53;;;;;;;;;;;16.70;99.90;;;;;;5063461;28;19920;-67
2022/05/13 02:51:20;;;;;;;;;;;16.60;99.90;;;;;;5063467;28;19920;-67
2022/05/13 02:53:47;;;;;;;;;;;16.70;99.90;;;;;;5072292;28;19920;-67
2022/05/13 02:56:14;;;;;;;;;;;16.60;99.90;;;;;;5082575;28;19924;-67
2022/05/13 02:58:41;;;;;;;;;;;16.60;99.90;;;;;;5083551;28;19927;-67
2022/05/13 03:01:08;;;;;;;;;;;16.60;99.90;;;;;;5083523;28;19947;-68
2022/05/13 03:03:37;;;;;;;;;;;16.60;99.90;;;;;;5076601;28;19927;-67
2022/05/13 03:06:05;;;;;;;;;;;16.60;99.90;;;;;;5080024;28;19920;-67
2022/05/13 03:08:32;;;;;;;;;;;16.70;99.90;;;;;;5083172;28;20212;-67
2022/05/13 03:10:58;;;;;;;;;;;16.60;99.90;;;;;;5083048;28;19995;-66
2022/05/13 03:13:25;;;;;;;;;;;16.60;99.90;;;;;;5077239;28;20232;-67
2022/05/13 03:15:52;;;;;;;;;;;16.60;99.90;;;;;;5061529;28;19924;-67
2022/05/13 03:18:19;;;;;;;;;;;16.60;99.90;;;;;;5063082;28;19927;-67
2022/05/13 03:20:46;;;;;;;;;;;16.60;99.90;;;;;;5062809;28;19928;-67
2022/05/13 03:23:13;;;;;;;;;;;16.60;99.90;;;;;;5066875;28;19951;-67
2022/05/13 03:25:40;;;;;;;;;;;16.60;99.90;;;;;;5073280;28;19928;-67
2022/05/13 03:28:07;;;;;;;;;;;16.50;99.90;;;;;;5062901;28;20222;-67
2022/05/13 03:30:33;;;;;;;;;;;16.50;99.90;;;;;;5062985;28;19927;-68
2022/05/13 03:33:00;;;;;;;;;;;16.50;99.90;;;;;;5078757;28;19936;-67
2022/05/13 03:35:26;;;;;;;;;;;16.50;99.90;;;;;;5083232;28;19927;-68
2022/05/13 03:37:53;;;;;;;;;;;16.50;99.90;;;;;;5086989;28;19920;-68
2022/05/13 03:40:21;;;;;;;;;;;16.50;99.90;;;;;;5075723;28;19920;-67
2022/05/13 03:42:48;;;;;;;;;;;16.50;99.90;;;;;;5084437;28;19921;-68
2022/05/13 03:45:15;;;;;;;;;;;16.40;99.90;;;;;;5086280;28;19927;-68
2022/05/13 03:47:44;;;;;;;;;;;16.40;99.90;;;;;;5086816;28;19974;-67
2022/05/13 03:50:10;;;;;;;;;;;16.30;99.90;;;;;;5086686;28;20227;-67
2022/05/13 03:52:37;;;;;;;;;;;16.30;99.90;;;;;;5086783;28;20150;-67
2022/05/13 03:55:05;;;;;;;;;;;16.30;99.90;;;;;;5086502;28;20226;-67
2022/05/13 03:57:33;;;;;;;;;;;16.30;99.90;;;;;;5086314;28;19928;-67
2022/05/13 04:00:00;;;;;;;;;;;16.30;99.90;;;;;;5086720;28;19924;-67
2022/05/13 04:02:28;;;;;;;;;;;16.30;99.90;;;;;;5086023;28;19979;-67
2022/05/13 04:10:23;;;;;;;;;;;16.30;99.90;;;;;;5086593;28;19931;-67
2022/05/13 04:18:19;;;;;;;;;;;16.30;99.90;;;;;;5086455;28;19923;-68
2022/05/13 04:20:47;;;;;;;;;;;16.20;99.90;;;;;;5086320;28;19928;-68
2022/05/13 04:23:14;;;;;;;;;;;16.20;99.90;;;;;;5086064;28;19984;-68
2022/05/13 04:25:40;;;;;;;;;;;16.20;99.90;;;;;;5085615;28;19927;-68
2022/05/13 04:28:08;;;;;;;;;;;16.30;99.90;;;;;;5086387;28;19920;-68
2022/05/13 04:30:35;;;;;;;;;;;16.30;99.90;;;;;;5086435;28;19920;-68
2022/05/13 04:33:01;;;;;;;;;;;16.30;99.90;;;;;;5085945;28;19965;-68
2022/05/13 04:35:28;;;;;;;;;;;16.30;99.90;;;;;;5085310;28;19920;-68
2022/05/13 04:37:54;;;;;;;;;;;16.20;99.90;;;;;;5083628;28;19920;-67
2022/05/13 04:40:21;;;;;;;;;;;16.30;99.90;;;;;;5068081;28;19920;-67
2022/05/13 04:42:49;;;;;;;;;;;16.20;99.90;;;;;;5082486;28;19927;-67
2022/05/13 04:45:23;;;;;;;;;;;16.20;99.90;;;;;;5083610;28;20162;-67
2022/05/13 04:50:35;;;;;;;;;;;16.30;99.90;;;;;;5078116;28;19962;-67
2022/05/13 04:53:01;;;;;;;;;;;16.30;99.90;;;;;;5065245;28;19929;-67
2022/05/13 04:55:28;;;;;;;;;;;16.40;99.90;;;;;;5063888;28;20154;-67
2022/05/13 04:57:54;;;;;;;;;;;16.40;99.90;;;;;;5065493;28;19920;-66
2022/05/13 05:00:23;;;;;;;;;;;16.30;99.90;;;;;;5065718;28;20131;-67
2022/05/13 05:02:49;;;;;;;;;;;16.30;99.90;;;;;;5078228;28;20158;-67
2022/05/13 05:05:16;;;;;;;;;;;16.30;99.90;;;;;;5073454;28;19924;-63
2022/05/13 05:07:42;;;;;;;;;;;16.30;99.90;;;;;;5065773;28;19927;-66
2022/05/13 05:10:10;;;;;;;;;;;16.40;99.90;;;;;;5065730;28;20132;-66
2022/05/13 05:12:37;;;;;;;;;;;16.40;99.90;;;;;;5072944;28;20184;-67
2022/05/13 05:15:04;;;;;;;;;;;16.40;99.90;;;;;;5085001;28;19921;-66
2022/05/13 05:17:32;;;;;;;;;;;16.40;99.90;;;;;;5084670;28;19927;-66
2022/05/13 05:19:58;;;;;;;;;;;16.40;99.90;;;;;;5084933;28;19943;-66
2022/05/13 05:22:25;;;;;;;;;;;16.40;99.90;;;;;;5085108;28;19920;-66
2022/05/13 05:24:52;;;;;;;;;;;16.40;99.90;;;;;;5084982;28;20120;-66
2022/05/13 05:27:18;;;;;;;;;;;16.40;99.90;;;;;;5084750;28;19986;-65
2022/05/13 05:29:46;;;;;;;;;;;16.40;99.90;;;;;;5084895;28;19927;-67
2022/05/13 05:32:13;;;;;;;;;;;16.40;99.90;;;;;;5084967;28;19928;-66
2022/05/13 05:34:41;;;;;;;;;;;16.40;99.90;;;;;;5083720;28;20205;-66
2022/05/13 05:37:08;;;;;;;;;;;16.40;99.90;;;;;;5083405;28;19927;-66
2022/05/13 05:39:34;;;;;;;;;;;16.40;99.90;;;;;;5082290;28;19928;-66
2022/05/13 05:42:01;;;;;;;;;;;16.50;99.90;;;;;;5082742;22;19920;-68
2022/05/13 05:44:28;;;;;;;;;;;16.50;99.90;;;;;;5044320;28;19921;-68
2022/05/13 05:46:54;;;;;;;;;;;16.50;99.90;;;;;;5046921;28;19921;-67
2022/05/13 05:49:21;;;;;;;;;;;16.50;99.90;;;;;;5064273;28;19921;-68
2022/05/13 05:51:49;;;;;;;;;;;16.50;99.90;;;;;;5060812;28;19927;-68
2022/05/13 05:57:15;;;;;;;;;;;16.50;99.90;;;;;;5043778;28;19967;-68
2022/05/13 05:59:42;;;;;;;;;;;16.60;99.90;;;;;;5044129;28;19963;-69
2022/05/13 06:02:09;;;;;;;;;;;16.60;99.90;;;;;;5049620;28;20461;-68
2022/05/13 06:04:35;;;;;;;;;;;16.70;99.90;;;;;;5041105;28;19928;-68
2022/05/13 06:07:04;;;;;;;;;;;16.70;99.90;;;;;;5043992;28;19948;-68
2022/05/13 06:09:30;;;;;;;;;;;16.70;99.90;;;;;;5043995;28;19921;-67
2022/05/13 06:11:57;;;;;;;;;;;16.80;99.90;;;;;;5044183;28;19921;-68
2022/05/13 06:14:24;;;;;;;;;;;16.80;99.90;;;;;;5044324;28;19921;-68
2022/05/13 06:16:51;;;;;;;;;;;16.70;99.90;;;;;;5051290;28;19927;-68
2022/05/13 06:19:17;;;;;;;;;;;16.80;99.90;;;;;;5047410;28;19921;-67
2022/05/13 06:21:44;;;;;;;;;;;16.80;99.90;;;;;;5043845;28;19987;-68
2022/05/13 06:24:12;;;;;;;;;;;16.90;99.90;;;;;;5043777;28;19928;-67
2022/05/13 06:26:40;;;;;;;;;;;16.90;99.90;;;;;;5043574;28;19927;-66
2022/05/13 06:29:07;;;;;;;;;;;17.00;99.90;;;;;;5044180;28;19925;-66
2022/05/13 06:31:35;;;;;;;;;;;17.10;99.90;;;;;;5043517;28;19921;-65
2022/05/13 06:34:02;;;;;;;;;;;17.10;99.90;;;;;;5044962;28;19921;-66
2022/05/13 06:36:28;;;;;;;;;;;17.10;99.90;;;;;;5044798;28;19928;-65
2022/05/13 06:38:56;;;;;;;;;;;17.10;99.90;;;;;;5043492;28;19928;-65
2022/05/13 06:41:24;;;;;;;;;;;17.10;99.90;;;;;;5041042;28;19921;-66
2022/05/13 06:43:51;;;;;;;;;;;17.10;99.90;;;;;;5041240;28;19921;-66
2022/05/13 06:46:18;;;;;;;;;;;17.20;99.90;;;;;;5039490;28;19984;-66
2022/05/13 06:48:44;;;;;;;;;;;17.20;99.90;;;;;;5043293;28;19921;-66
2022/05/13 06:51:11;;;;;;;;;;;17.20;99.90;;;;;;5042740;28;20208;-65
2022/05/13 06:53:37;;;;;;;;;;;17.20;99.90;;;;;;5052675;28;19920;-65
2022/05/13 06:56:04;;;;;;;;;;;17.30;99.90;;;;;;5060949;28;19920;-65
2022/05/13 06:58:32;;;;;;;;;;;17.30;99.90;;;;;;5059267;28;19927;-65
2022/05/13 07:00:59;;;;;;;;;;;17.40;99.90;;;;;;5056603;28;20097;-66
2022/05/13 07:03:25;;;;;;;;;;;17.50;99.90;;;;;;5045991;28;19947;-65
2022/05/13 07:05:52;;;;;;;;;;;17.60;99.90;;;;;;5042405;28;19921;-65
2022/05/13 07:08:18;;;;;;;;;;;17.60;99.90;;;;;;5043226;28;19927;-65
2022/05/13 07:10:45;;;;;;;;;;;17.70;99.90;;;;;;5043035;28;19928;-66
2022/05/13 07:13:13;;;;;;;;;;;17.70;99.90;;;;;;5043033;28;20205;-66
2022/05/13 07:15:42;;;;;;;;;;;17.70;99.90;;;;;;5039204;28;19928;-66
2022/05/13 07:18:09;;;;;;;;;;;17.70;99.90;;;;;;5044113;28;19968;-66
2022/05/13 07:20:36;;;;;;;;;;;17.60;99.90;;;;;;5043206;28;19933;-66
2022/05/13 07:23:03;;;;;;;;;;;17.60;99.90;;;;;;5036735;28;20252;-66
2022/05/13 07:25:31;;;;;;;;;;;17.60;99.90;;;;;;5022354;28;19940;-67
2022/05/13 07:27:57;;;;;;;;;;;17.60;99.90;;;;;;5023532;28;19968;-67
2022/05/13 07:30:24;;;;;;;;;;;17.60;99.90;;;;;;5041936;28;19921;-67
2022/05/13 07:32:53;;;;;;;;;;;17.60;99.90;;;;;;5026619;28;20155;-67
2022/05/13 07:35:20;;;;;;;;;;;17.70;99.90;;;;;;5022506;28;19921;-70
2022/05/13 07:37:46;;;;;;;;;;;17.80;99.90;;;;;;5023116;28;19925;-66
2022/05/13 07:42:57;;;;;;;;;;;17.80;99.90;;;;;;5035962;28;19924;-69
2022/05/13 07:45:24;;;;;;;;;;;17.80;99.90;;;;;;5042180;28;19925;-68
2022/05/13 07:47:53;;;;;;;;;;;17.90;99.90;;;;;;5043138;28;20151;-67
2022/05/13 07:50:20;;;;;;;;;;;17.90;99.90;;;;;;5042821;28;19955;-68
2022/05/13 07:52:47;;;;;;;;;;;17.90;99.90;;;;;;5042397;28;19921;-68
2022/05/13 07:55:15;;;;;;;;;;;18.00;99.90;;;;;;5042189;28;19921;-67
2022/05/13 07:57:42;;;;;;;;;;;18.00;99.90;;;;;;5042344;28;19921;-67
2022/05/13 08:00:27;;;;;;;;;;;18.10;99.90;;;;;;5039861;28;20226;-67
2022/05/13 08:02:57;;;;;;;;;;;18.10;99.90;;;;;;5040586;28;19927;-67
2022/05/13 08:05:23;;;;;;;;;;;18.00;99.90;;;;;;5049869;28;19986;-67
2022/05/13 08:07:58;;;;;;;;;;;18.00;99.90;;;;;;5042557;28;20239;-67
2022/05/13 08:10:25;;;;;;;;;;;18.10;99.90;;;;;;5041491;28;20121;-67
2022/05/13 08:12:51;;;;;;;;;;;18.10;99.90;;;;;;5042605;28;19943;-68
2022/05/13 08:15:20;;;;;;;;;;;18.10;99.90;;;;;;5031758;28;19996;-67
2022/05/13 08:17:47;;;;;;;;;;;18.10;99.90;;;;;;5034560;28;19928;-67
2022/05/13 08:20:15;;;;;;;;;;;18.20;99.90;;;;;;5042701;28;19928;-67
2022/05/13 08:22:42;;;;;;;;;;;18.20;99.90;;;;;;5060034;28;19951;-68
2022/05/13 08:25:09;;;;;;;;;;;18.20;99.90;;;;;;5065900;28;19958;-65
2022/05/13 08:27:36;;;;;;;;;;;18.20;99.90;;;;;;5062634;28;20356;-67
2022/05/13 08:30:06;;;;;;;;;;;18.20;99.90;;;;;;5066406;28;19924;-65
2022/05/13 08:32:33;;;;;;;;;;;18.30;99.90;;;;;;5066100;28;19992;-67
2022/05/13 08:35:00;;;;;;;;;;;18.40;99.90;;;;;;5065274;28;19929;-66
2022/05/13 08:37:29;;;;;;;;;;;18.40;99.90;;;;;;5065615;28;19921;-67
2022/05/13 08:39:55;;;;;;;;;;;18.40;99.90;;;;;;5066357;28;19924;-67
2022/05/13 08:42:26;;;;;;;;;;;18.40;99.90;;;;;;5064614;28;20143;-67
2022/05/13 08:44:54;;;;;;;;;;;18.40;99.90;;;;;;5062785;28;20210;-67
2022/05/13 08:47:22;;;;;;;;;;;18.40;99.90;;;;;;5065344;28;19928;-66
2022/05/13 08:49:52;;;;;;;;;;;18.30;99.90;;;;;;5066048;28;19928;-67
2022/05/13 08:55:13;;;;;;;;;;;18.40;99.90;;;;;;5045509;28;19955;-66
2022/05/13 08:57:41;;;;;;;;;;;18.40;99.90;;;;;;5045776;28;20143;-67
2022/05/13 09:00:10;;;;;;;;;;;18.40;99.90;;;;;;5046271;28;19927;-66
2022/05/13 09:02:38;;;;;;;;;;;18.50;99.90;;;;;;5039500;28;20232;-67
2022/05/13 09:05:07;;;;;;;;;;;18.60;99.90;;;;;;5045063;28;19927;-68
2022/05/13 09:07:33;;;;;;;;;;;18.70;99.90;;;;;;5045469;28;19929;-67
2022/05/13 09:10:01;;;;;;;;;;;18.70;99.90;;;;;;5039201;28;19928;-68
2022/05/13 09:12:33;;;;;;;;;;;18.60;99.90;;;;;;5036790;28;19921;-67
2022/05/13 09:15:03;;;;;;;;;;;18.60;99.90;;;;;;5045550;28;20171;-67
2022/05/13 09:17:34;;;;;;;;;;;18.60;99.90;;;;;;5044527;28;19921;-66
2022/05/13 09:20:02;;;;;;;;;;;18.60;99.90;;;;;;5025469;28;19921;-67
2022/05/13 09:22:33;;;;;;;;;;;18.60;99.90;;;;;;5025621;28;19927;-69
2022/05/13 09:24:59;;;;;;;;;;;18.60;99.90;;;;;;5027014;28;19921;-67
2022/05/13 09:27:26;;;;;;;;;;;18.60;99.90;;;;;;5041493;28;19921;-68
2022/05/13 09:29:54;;;;;;;;;;;18.60;99.90;;;;;;5045533;28;20111;-68
2022/05/13 09:32:24;;;;;;;;;;;18.60;99.90;;;;;;5044790;28;19921;-67
2022/05/13 09:34:56;;;;;;;;;;;18.70;99.90;;;;;;5044615;28;19924;-67
2022/05/13 09:37:25;;;;;;;;;;;18.80;99.90;;;;;;5044080;28;19921;-68
2022/05/13 09:40:05;;;;;;;;;;;18.80;99.90;;;;;;5044479;28;20262;-69
2022/05/13 09:42:35;;;;;;;;;;;18.90;99.90;;;;;;5042231;28;19927;-68
2022/05/13 09:45:15;;;;;;;;;;;19.00;99.90;;;;;;5045787;28;19921;-68
2022/05/13 09:47:42;;;;;;;;;;;19.10;99.90;;;;;;5062312;28;19927;-68
2022/05/13 09:50:17;;;;;;;;;;;19.10;99.90;;;;;;5064497;28;20222;-68
2022/05/13 09:52:44;;;;;;;;;;;19.20;99.90;;;;;;5054803;28;20200;-67
2022/05/13 09:55:14;;;;;;;;;;;19.30;99.90;;;;;;5044132;28;19967;-68
2022/05/13 09:57:41;;;;;;;;;;;19.30;99.90;;;;;;5041751;28;19921;-67
2022/05/13 10:00:13;;;;;;;;;;;19.20;99.90;;;;;;5061365;28;19979;-70
2022/05/13 10:02:42;;;;;;;;;;;19.10;99.90;;;;;;5054384;28;19921;-70
2022/05/13 10:05:13;;;;;;;;;;;19.20;99.90;;;;;;5044283;28;19928;-69
2022/05/13 10:07:44;;;;;;;;;;;19.20;99.90;;;;;;5036315;28;19925;-67
2022/05/13 10:15:50;;;;;;;;;;;19.20;99.90;;;;;;5039567;28;19989;-67
2022/05/13 10:18:20;;;;;;;;;;;19.20;99.90;;;;;;5043185;28;19925;-67
2022/05/13 10:20:48;;;;;;;;;;;19.20;99.90;;;;;;5043484;28;19927;-67
2022/05/13 10:23:18;;;;;;;;;;;19.30;99.90;;;;;;5043079;28;20208;-67
2022/05/13 10:25:48;;;;;;;;;;;19.40;99.90;;;;;;5043437;28;19927;-67
2022/05/13 10:28:19;;;;;;;;;;;19.50;99.90;;;;;;5026919;28;19928;-68
2022/05/13 10:30:47;;;;;;;;;;;19.50;99.90;;;;;;5044293;28;19928;-69
2022/05/13 10:33:17;;;;;;;;;;;19.70;99.90;;;;;;5044130;28;19921;-72
2022/05/13 10:35:50;;;;;;;;;;;19.90;99.90;;;;;;5043287;28;19952;-67
2022/05/13 10:38:22;;;;;;;;;;;20.20;99.90;;;;;;5039982;28;19935;-70
2022/05/13 10:40:49;;;;;;;;;;;20.40;99.90;;;;;;5043686;28;20228;-70
2022/05/13 10:43:17;;;;;;;;;;;20.50;99.90;;;;;;5044090;28;19992;-70
2022/05/13 10:45:44;;;;;;;;;;;20.70;99.90;;;;;;5042803;28;20247;-70
2022/05/13 10:48:15;;;;;;;;;;;20.80;99.90;;;;;;5047301;28;19921;-70
2022/05/13 10:50:44;;;;;;;;;;;20.90;99.90;;;;;;5043808;28;20173;-69
2022/05/13 10:53:14;;;;;;;;;;;20.80;99.90;;;;;;5052393;28;21384;-70
2022/05/13 10:55:49;;;;;;;;;;;20.80;99.90;;;;;;5034721;28;19928;-70
2022/05/13 10:58:25;;;;;;;;;;;20.70;99.90;;;;;;5031391;28;19940;-70
2022/05/13 11:00:54;;;;;;;;;;;20.70;99.90;;;;;;5043690;28;19921;-70
2022/05/13 11:03:40;;;;;;;;;;;20.80;99.90;;;;;;5043520;28;19921;-71
2022/05/13 11:06:14;;;;;;;;;;;21.10;99.90;;;;;;5024742;28;19944;-71
2022/05/13 11:08:48;;;;;;;;;;;21.40;99.90;;;;;;5062775;28;19925;-70
2022/05/13 11:11:24;;;;;;;;;;;21.40;99.90;;;;;;5063121;28;19921;-70
2022/05/13 11:13:57;;;;;;;;;;;21.50;99.90;;;;;;5061349;28;19928;-70
2022/05/13 11:16:28;;;;;;;;;;;21.40;99.90;;;;;;5042646;28;19928;-70
2022/05/13 11:19:02;;;;;;;;;;;21.10;99.90;;;;;;5040575;28;19928;-70
2022/05/13 11:21:32;;;;;;;;;;;21.00;99.90;;;;;;5043225;28;19921;-70
2022/05/13 11:26:51;;;;;;;;;;;21.00;99.90;;;;;;5022799;28;19989;-73
2022/05/13 11:29:24;;;;;;;;;;;21.00;99.90;;;;;;5023356;28;20209;-71
2022/05/13 11:31:57;;;;;;;;;;;21.30;99.90;;;;;;5023577;28;20102;-67
2022/05/13 11:34:31;;;;;;;;;;;21.50;99.90;;;;;;5028936;28;19921;-68
2022/05/13 11:36:59;;;;;;;;;;;21.80;99.90;;;;;;5042445;28;19943;-70
2022/05/13 11:39:39;;;;;;;;;;;21.90;99.90;;;;;;5043159;28;19921;-70
2022/05/13 11:42:11;;;;;;;;;;;21.90;99.90;;;;;;5087301;22;20123;-65
2022/05/13 11:44:43;;;;;;;;;;;22.10;99.90;;;;;;5063096;28;19928;-69
2022/05/13 11:47:13;;;;;;;;;;;22.30;99.90;;;;;;5062719;28;19920;-66
2022/05/13 11:49:44;;;;;;;;;;;22.40;99.90;;;;;;5063140;28;19925;-67
2022/05/13 11:52:26;;;;;;;;;;;22.40;99.90;;;;;;5062614;28;19988;-67
2022/05/13 11:55:11;;;;;;;;;;;22.50;99.90;;;;;;5047987;28;20237;-67
2022/05/13 11:57:41;;;;;;;;;;;22.60;99.90;;;;;;5041815;28;20091;-66
2022/05/13 12:00:25;;;;;;;;;;;22.80;99.90;;;;;;5045240;28;19931;-66
2022/05/13 12:02:53;;;;;;;;;;;23.00;99.90;;;;;;5043602;28;19921;-66
2022/05/13 12:05:30;;;;;;;;;;;22.80;99.90;;;;;;5054546;28;19928;-66
2022/05/13 12:08:03;;;;;;;;;;;22.70;99.90;;;;;;5045734;28;19921;-65
2022/05/13 12:10:36;;;;;;;;;;;22.90;99.90;;;;;;5038657;28;20212;-65
2022/05/13 12:13:11;;;;;;;;;;;23.20;99.90;;;;;;5052847;28;19975;-69
2022/05/13 12:15:42;;;;;;;;;;;23.40;99.90;;;;;;5046125;28;19928;-65
2022/05/13 12:18:17;;;;;;;;;;;23.20;99.90;;;;;;5046564;28;19921;-65
2022/05/13 12:20:46;;;;;;;;;;;23.20;99.80;;;;;;5046805;28;19928;-67
2022/05/13 12:23:16;;;;;;;;;;;22.90;99.90;;;;;;5046521;28;20119;-65
2022/05/13 12:25:52;;;;;;;;;;;23.00;99.90;;;;;;5046001;28;19979;-65
2022/05/13 12:28:24;;;;;;;;;;;23.10;98.20;;;;;;5046698;28;19921;-66
2022/05/13 12:30:51;;;;;;;;;;;23.20;97.90;;;;;;5046535;28;19967;-65
2022/05/13 12:33:36;;;;;;;;;;;22.90;97.20;;;;;;5046676;28;19928;-65
2022/05/13 12:39:21;;;;;;;;;;;23.20;98.90;;;;;;5046291;28;19936;-66
2022/05/13 12:42:06;;;;;;;;;;;23.30;98.10;;;;;;4974478;28;19922;-65
2022/05/13 12:44:35;;;;;;;;;;;23.30;96.80;;;;;;5016721;28;19921;-65
2022/05/13 12:47:22;;;;;;;;;;;23.20;97.20;;;;;;5025992;28;19921;-65
2022/05/13 12:49:53;;;;;;;;;;;23.00;97.00;;;;;;5026560;28;19921;-65
2022/05/13 12:52:23;;;;;;;;;;;23.00;97.40;;;;;;5026270;28;19929;-65
2022/05/13 12:54:52;;;;;;;;;;;23.10;95.50;;;;;;5026113;28;20236;-65
2022/05/13 12:57:22;;;;;;;;;;;23.00;94.80;;;;;;5025401;28;19922;-65
2022/05/13 12:59:51;;;;;;;;;;;23.00;95.70;;;;;;5039079;28;19927;-68
2022/05/13 13:02:20;;;;;;;;;;;22.90;95.80;;;;;;5046052;28;19928;-67
2022/05/13 13:04:54;;;;;;;;;;;23.00;96.40;;;;;;5045632;28;20094;-68
2022/05/13 13:07:25;;;;;;;;;;;23.30;96.50;;;;;;5045341;28;19927;-67
2022/05/13 13:09:52;;;;;;;;;;;23.50;97.00;;;;;;5045909;28;19921;-65
2022/05/13 13:12:20;;;;;;;;;;;23.50;96.60;;;;;;5045849;28;19963;-65
2022/05/13 13:14:50;;;;;;;;;;;23.30;96.20;;;;;;5045465;28;19921;-66
2022/05/13 13:17:22;;;;;;;;;;;23.30;97.60;;;;;;5044982;28;19928;-65
2022/05/13 13:19:49;;;;;;;;;;;23.20;96.50;;;;;;5045645;28;19927;-65
2022/05/13 13:22:20;;;;;;;;;;;23.30;97.40;;;;;;5046109;28;19921;-65
2022/05/13 13:24:46;;;;;;;;;;;23.40;95.60;;;;;;5025484;28;19921;-66
2022/05/13 13:27:14;;;;;;;;;;;23.50;96.40;;;;;;5024905;28;20232;-66
2022/05/13 13:29:43;;;;;;;;;;;23.60;96.20;;;;;;5025645;28;20231;-66
2022/05/13 13:32:14;;;;;;;;;;;23.80;95.60;;;;;;5034546;28;19921;-65
2022/05/13 13:34:48;;;;;;;;;;;24.10;95.60;;;;;;5045275;28;19928;-66
2022/05/13 13:37:16;;;;;;;;;;;24.40;94.90;;;;;;5044684;28;19928;-65
2022/05/13 13:39:43;;;;;;;;;;;24.80;94.90;;;;;;5044836;28;19933;-66
2022/05/13 13:42:11;;;;;;;;;;;24.80;94.60;;;;;;5028364;28;19921;-66
2022/05/13 13:44:38;;;;;;;;;;;24.90;94.30;;;;;;5025950;28;19925;-66
2022/05/13 13:47:07;;;;;;;;;;;25.00;94.20;;;;;;5025009;28;19964;-66
2022/05/13 13:49:36;;;;;;;;;;;25.00;92.80;;;;;;5025886;28;20204;-66
2022/05/13 13:52:04;;;;;;;;;;;24.90;93.10;;;;;;5025786;28;19922;-67
2022/05/13 13:54:35;;;;;;;;;;;25.10;93.00;;;;;;5025443;28;20098;-66
2022/05/13 13:57:10;;;;;;;;;;;25.20;93.00;;;;;;5024683;28;19928;-67
2022/05/13 13:59:41;;;;;;;;;;;25.00;92.00;;;;;;5025603;28;19922;-66
2022/05/13 14:02:08;;;;;;;;;;;24.70;91.30;;;;;;5025261;28;19921;-66
2022/05/13 14:04:38;;;;;;;;;;;24.60;92.70;;;;;;5025226;28;19922;-65
2022/05/13 14:07:09;;;;;;;;;;;24.70;91.90;;;;;;5024534;28;19956;-66
2022/05/13 14:09:38;;;;;;;;;;;24.80;91.70;;;;;;5023033;28;19955;-65
2022/05/13 14:12:07;;;;;;;;;;;25.00;92.00;;;;;;5064877;28;19963;-66
2022/05/13 14:14:34;;;;;;;;;;;25.20;92.20;;;;;;5065289;28;19921;-67
2022/05/13 14:17:02;;;;;;;;;;;25.20;92.10;;;;;;5061035;28;19921;-67
2022/05/13 14:19:30;;;;;;;;;;;25.20;91.50;;;;;;5045251;28;19927;-67
2022/05/13 14:21:59;;;;;;;;;;;25.10;91.80;;;;;;5045621;28;19933;-67
2022/05/13 14:24:30;;;;;;;;;;;25.30;91.60;;;;;;5046084;28;19928;-66
2022/05/13 14:26:59;;;;;;;;;;;25.10;91.40;;;;;;5042235;28;20238;-66
2022/05/13 14:29:26;;;;;;;;;;;25.00;90.70;;;;;;5045469;28;19944;-66
2022/05/13 14:31:54;;;;;;;;;;;25.10;91.50;;;;;;5044196;28;19928;-66
2022/05/13 14:34:22;;;;;;;;;;;24.90;91.70;;;;;;5041651;28;20216;-65
2022/05/13 14:36:54;;;;;;;;;;;24.80;92.50;;;;;;5040348;28;19928;-66
2022/05/13 14:42:13;;;;;;;;;;;24.90;92.00;;;;;;5021409;28;19928;-65
2022/05/13 14:44:41;;;;;;;;;;;24.80;91.20;;;;;;5024401;28;19992;-67
2022/05/13 14:47:09;;;;;;;;;;;24.80;92.00;;;;;;5032847;28;20132;-66
2022/05/13 14:49:38;;;;;;;;;;;24.70;91.10;;;;;;5043825;28;19928;-66
2022/05/13 14:52:05;;;;;;;;;;;24.70;91.10;;;;;;5059423;28;19966;-64
2022/05/13 14:54:35;;;;;;;;;;;24.60;91.40;;;;;;5059263;28;19928;-65
2022/05/13 14:57:02;;;;;;;;;;;24.70;91.70;;;;;;5052745;28;19921;-64
2022/05/13 14:59:32;;;;;;;;;;;24.80;92.00;;;;;;5063528;28;19921;-66
2022/05/13 15:01:58;;;;;;;;;;;25.10;91.50;;;;;;5063314;28;19944;-65